createdAt,value
2023-04-27T00:00:20.930Z,0.00
2023-04-27T00:01:20.928Z,0.00
2023-04-27T00:02:21.046Z,0.00
2023-04-27T00:03:21.184Z,0.00
2023-04-27T00:04:21.266Z,0.00
2023-04-27T00:05:21.114Z,0.00
2023-04-27T00:06:20.958Z,0.00
2023-04-27T00:07:20.911Z,0.00
2023-04-27T00:08:20.910Z,0.00
2023-04-27T00:09:20.908Z,0.00
2023-04-27T00:10:20.906Z,0.00
2023-04-27T00:11:20.898Z,0.00
2023-04-27T00:12:20.927Z,0.00
2023-04-27T00:13:20.897Z,0.00
2023-04-27T00:14:20.909Z,0.00
2023-04-27T00:15:20.892Z,0.00
2023-04-27T00:16:20.985Z,0.00
2023-04-27T00:17:20.912Z,0.00
2023-04-27T00:18:20.900Z,0.00
2023-04-27T00:19:20.888Z,0.00
2023-04-27T00:20:20.897Z,0.00
2023-04-27T00:21:20.875Z,0.00
2023-04-27T00:22:20.879Z,0.00
2023-04-27T00:23:20.893Z,0.00
2023-04-27T00:24:20.873Z,0.00
2023-04-27T00:25:20.868Z,0.00
2023-04-27T00:26:20.868Z,0.00
2023-04-27T00:27:20.865Z,0.00
2023-04-27T00:28:20.864Z,0.00
2023-04-27T00:29:20.860Z,0.00
2023-04-27T00:30:20.861Z,0.00
2023-04-27T00:31:20.961Z,0.00
2023-04-27T00:32:20.873Z,0.00
2023-04-27T00:33:20.847Z,0.00
2023-04-27T00:34:20.871Z,0.00
2023-04-27T00:35:20.842Z,0.00
2023-04-27T00:36:20.853Z,0.00
2023-04-27T00:37:20.839Z,0.00
2023-04-27T00:38:20.835Z,0.00
2023-04-27T00:39:20.852Z,0.00
2023-04-27T00:40:20.837Z,0.00
2023-04-27T00:41:20.829Z,0.00
2023-04-27T00:42:20.832Z,0.00
2023-04-27T00:43:20.828Z,0.00
2023-04-27T00:44:20.825Z,0.00
2023-04-27T00:45:20.823Z,0.00
2023-04-27T00:46:20.837Z,0.00
2023-04-27T00:47:20.864Z,0.00
2023-04-27T00:48:20.833Z,0.00
2023-04-27T00:49:20.808Z,0.00
2023-04-27T00:50:20.858Z,0.00
2023-04-27T00:51:20.804Z,0.00
2023-04-27T00:52:20.817Z,0.00
2023-04-27T00:53:20.812Z,0.00
2023-04-27T00:54:20.816Z,0.00
2023-04-27T00:55:20.793Z,0.00
2023-04-27T00:56:20.800Z,0.00
2023-04-27T00:57:20.795Z,0.00
2023-04-27T00:58:20.790Z,0.00
2023-04-27T00:59:20.792Z,0.00
2023-04-27T01:00:20.792Z,0.00
2023-04-27T01:01:20.871Z,0.00
2023-04-27T01:02:20.891Z,0.00
2023-04-27T01:03:20.875Z,0.00
2023-04-27T01:04:20.863Z,0.00
2023-04-27T01:05:20.776Z,0.00
2023-04-27T01:06:20.798Z,0.00
2023-04-27T01:07:20.770Z,0.00
2023-04-27T01:08:20.765Z,0.00
2023-04-27T01:09:20.772Z,0.00
2023-04-27T01:10:20.766Z,0.00
2023-04-27T01:11:20.759Z,0.00
2023-04-27T01:12:20.754Z,0.00
2023-04-27T01:13:20.762Z,0.00
2023-04-27T01:14:20.749Z,0.00
2023-04-27T01:15:20.755Z,0.00
2023-04-27T01:16:20.818Z,0.00
2023-04-27T01:17:20.745Z,0.00
2023-04-27T01:18:20.748Z,0.00
2023-04-27T01:19:20.740Z,0.00
2023-04-27T01:20:20.745Z,0.00
2023-04-27T01:21:20.743Z,0.00
2023-04-27T01:22:20.752Z,0.00
2023-04-27T01:23:20.738Z,0.00
2023-04-27T01:24:20.733Z,0.00
2023-04-27T01:25:20.732Z,0.00
2023-04-27T01:26:20.742Z,0.00
2023-04-27T01:27:20.728Z,0.00
2023-04-27T01:28:20.722Z,0.00
2023-04-27T01:29:20.722Z,0.00
2023-04-27T01:30:20.713Z,0.00
2023-04-27T01:31:20.734Z,0.00
2023-04-27T01:32:20.707Z,0.00
2023-04-27T01:33:20.718Z,0.00
2023-04-27T01:34:20.714Z,0.00
2023-04-27T01:35:20.715Z,0.00
2023-04-27T01:36:20.708Z,0.00
2023-04-27T01:37:20.704Z,0.00
2023-04-27T01:38:20.733Z,0.00
2023-04-27T01:39:20.702Z,0.00
2023-04-27T01:40:20.703Z,0.00
2023-04-27T01:41:20.698Z,0.00
2023-04-27T01:42:20.689Z,0.00
2023-04-27T01:43:20.689Z,0.00
2023-04-27T01:44:20.689Z,0.00
2023-04-27T01:45:20.690Z,0.00
2023-04-27T01:46:21.054Z,0.00
2023-04-27T01:47:20.690Z,0.00
2023-04-27T01:48:20.689Z,0.00
2023-04-27T01:49:20.686Z,0.00
2023-04-27T01:50:20.712Z,0.00
2023-04-27T01:51:20.688Z,0.00
2023-04-27T01:52:20.671Z,0.00
2023-04-27T01:53:20.671Z,0.00
2023-04-27T01:54:20.692Z,0.00
2023-04-27T01:55:20.664Z,0.00
2023-04-27T01:56:20.668Z,0.00
2023-04-27T01:57:20.669Z,0.00
2023-04-27T01:58:20.659Z,0.00
2023-04-27T01:59:20.676Z,0.00
2023-04-27T02:00:20.663Z,0.00
2023-04-27T02:01:20.709Z,0.00
2023-04-27T02:02:20.833Z,0.00
2023-04-27T02:03:20.867Z,0.00
2023-04-27T02:04:20.842Z,0.00
2023-04-27T02:05:20.676Z,0.00
2023-04-27T02:06:20.647Z,0.00
2023-04-27T02:07:20.650Z,0.00
2023-04-27T02:08:20.639Z,0.00
2023-04-27T02:09:20.636Z,0.00
2023-04-27T02:10:20.655Z,0.00
2023-04-27T02:11:20.634Z,0.00
2023-04-27T02:12:20.637Z,0.00
2023-04-27T02:13:20.631Z,0.00
2023-04-27T02:14:20.625Z,0.00
2023-04-27T02:15:20.626Z,0.00
2023-04-27T02:16:20.665Z,0.00
2023-04-27T02:17:20.630Z,0.00
2023-04-27T02:18:20.629Z,0.00
2023-04-27T02:19:20.628Z,0.00
2023-04-27T02:20:20.610Z,0.00
2023-04-27T02:21:20.610Z,0.00
2023-04-27T02:22:20.610Z,0.00
2023-04-27T02:23:20.608Z,0.00
2023-04-27T02:24:20.597Z,0.00
2023-04-27T02:25:20.602Z,0.00
2023-04-27T02:26:20.623Z,0.00
2023-04-27T02:27:20.621Z,0.00
2023-04-27T02:28:20.593Z,0.00
2023-04-27T02:29:20.598Z,0.00
2023-04-27T02:30:20.588Z,0.00
2023-04-27T02:31:20.633Z,0.00
2023-04-27T02:32:20.579Z,0.00
2023-04-27T02:33:20.580Z,0.00
2023-04-27T02:34:20.587Z,0.00
2023-04-27T02:35:20.608Z,0.00
2023-04-27T02:36:20.585Z,0.00
2023-04-27T02:37:20.571Z,0.00
2023-04-27T02:38:21.002Z,0.00
2023-04-27T02:39:20.580Z,0.00
2023-04-27T02:40:20.570Z,0.00
2023-04-27T02:41:20.570Z,0.00
2023-04-27T02:42:20.584Z,0.00
2023-04-27T02:43:20.565Z,0.00
2023-04-27T02:44:20.561Z,0.00
2023-04-27T02:45:20.553Z,0.00
2023-04-27T02:46:20.603Z,0.00
2023-04-27T02:47:20.551Z,0.00
2023-04-27T02:48:20.549Z,0.00
2023-04-27T02:49:20.551Z,0.00
2023-04-27T02:50:20.546Z,0.00
2023-04-27T02:51:20.543Z,0.00
2023-04-27T02:52:20.530Z,0.00
2023-04-27T02:53:20.541Z,0.00
2023-04-27T02:54:20.538Z,0.00
2023-04-27T02:55:20.531Z,0.00
2023-04-27T02:56:20.528Z,0.00
2023-04-27T02:57:20.528Z,0.00
2023-04-27T02:58:20.547Z,0.00
2023-04-27T02:59:20.523Z,0.00
2023-04-27T03:00:20.519Z,0.00
2023-04-27T03:01:20.608Z,0.00
2023-04-27T03:02:20.691Z,0.00
2023-04-27T03:03:20.692Z,0.00
2023-04-27T03:04:20.705Z,0.00
2023-04-27T03:05:20.511Z,0.00
2023-04-27T03:06:20.505Z,0.00
2023-04-27T03:07:20.501Z,0.00
2023-04-27T03:08:20.496Z,4.00
2023-04-27T03:09:20.506Z,4.00
2023-04-27T03:10:20.492Z,0.00
2023-04-27T03:11:20.491Z,0.00
2023-04-27T03:12:20.501Z,0.00
2023-04-27T03:13:20.493Z,0.00
2023-04-27T03:14:20.847Z,0.00
2023-04-27T03:15:20.486Z,4.00
2023-04-27T03:16:20.524Z,4.00
2023-04-27T03:17:20.478Z,0.00
2023-04-27T03:18:20.477Z,4.00
2023-04-27T03:19:20.474Z,4.00
2023-04-27T03:20:20.481Z,4.00
2023-04-27T03:21:20.470Z,4.00
2023-04-27T03:22:20.469Z,4.00
2023-04-27T03:23:20.467Z,4.00
2023-04-27T03:24:20.463Z,8.00
2023-04-27T03:25:20.466Z,8.00
2023-04-27T03:26:20.456Z,8.00
2023-04-27T03:27:20.458Z,12.00
2023-04-27T03:28:20.450Z,12.00
2023-04-27T03:29:20.453Z,16.00
2023-04-27T03:30:20.474Z,16.00
2023-04-27T03:31:20.500Z,16.00
2023-04-27T03:32:20.454Z,16.00
2023-04-27T03:33:20.448Z,20.00
2023-04-27T03:34:20.462Z,20.00
2023-04-27T03:35:20.456Z,24.00
2023-04-27T03:36:20.438Z,28.00
2023-04-27T03:37:20.438Z,36.00
2023-04-27T03:38:20.429Z,36.00
2023-04-27T03:39:20.441Z,40.00
2023-04-27T03:40:20.428Z,48.00
2023-04-27T03:41:20.425Z,56.00
2023-04-27T03:42:20.424Z,60.00
2023-04-27T03:43:20.420Z,68.00
2023-04-27T03:44:20.428Z,76.00
2023-04-27T03:45:20.416Z,88.00
2023-04-27T03:46:20.474Z,96.00
2023-04-27T03:47:20.443Z,108.00
2023-04-27T03:48:20.409Z,116.00
2023-04-27T03:49:20.406Z,120.00
2023-04-27T03:50:20.425Z,124.00
2023-04-27T03:51:20.417Z,136.00
2023-04-27T03:52:20.428Z,144.00
2023-04-27T03:53:20.399Z,160.00
2023-04-27T03:54:20.396Z,180.00
2023-04-27T03:55:20.395Z,200.00
2023-04-27T03:56:20.394Z,220.00
2023-04-27T03:57:20.394Z,236.00
2023-04-27T03:58:20.385Z,260.00
2023-04-27T03:59:20.405Z,272.00
2023-04-27T04:00:20.382Z,284.00
2023-04-27T04:01:20.538Z,308.00
2023-04-27T04:02:20.484Z,328.00
2023-04-27T04:03:20.582Z,356.00
2023-04-27T04:04:20.547Z,388.00
2023-04-27T04:05:20.472Z,420.00
2023-04-27T04:06:20.367Z,456.00
2023-04-27T04:07:20.373Z,488.00
2023-04-27T04:08:20.366Z,520.00
2023-04-27T04:09:22.719Z,556.00
2023-04-27T04:10:20.370Z,588.00
2023-04-27T04:11:20.358Z,616.00
2023-04-27T04:12:20.360Z,640.00
2023-04-27T04:13:20.354Z,656.00
2023-04-27T04:14:20.361Z,664.00
2023-04-27T04:15:20.356Z,668.00
2023-04-27T04:16:20.385Z,668.00
2023-04-27T04:17:20.350Z,672.00
2023-04-27T04:18:20.374Z,684.00
2023-04-27T04:19:21.948Z,696.00
2023-04-27T04:20:20.338Z,696.00
2023-04-27T04:21:20.348Z,696.00
2023-04-27T04:22:20.340Z,700.00
2023-04-27T04:23:20.333Z,696.00
2023-04-27T04:24:20.336Z,696.00
2023-04-27T04:25:20.331Z,704.00
2023-04-27T04:26:20.320Z,712.00
2023-04-27T04:27:20.322Z,720.00
2023-04-27T04:28:20.322Z,728.00
2023-04-27T04:29:20.322Z,744.00
2023-04-27T04:30:20.317Z,760.00
2023-04-27T04:31:20.347Z,784.00
2023-04-27T04:32:20.315Z,812.00
2023-04-27T04:33:20.311Z,844.00
2023-04-27T04:34:20.320Z,884.00
2023-04-27T04:35:20.308Z,912.00
2023-04-27T04:36:20.300Z,940.00
2023-04-27T04:37:20.302Z,984.00
2023-04-27T04:38:20.300Z,1024.00
2023-04-27T04:39:20.297Z,1036.00
2023-04-27T04:40:20.290Z,1048.00
2023-04-27T04:41:20.292Z,1080.00
2023-04-27T04:42:20.288Z,1100.00
2023-04-27T04:43:20.288Z,1128.00
2023-04-27T04:44:20.288Z,1144.00
2023-04-27T04:45:20.290Z,1160.00
2023-04-27T04:46:20.365Z,1200.00
2023-04-27T04:47:20.277Z,1248.00
2023-04-27T04:48:20.314Z,1304.00
2023-04-27T04:49:20.279Z,1368.00
2023-04-27T04:50:20.302Z,1428.00
2023-04-27T04:51:20.280Z,1488.00
2023-04-27T04:52:20.264Z,1532.00
2023-04-27T04:53:20.282Z,1560.00
2023-04-27T04:54:20.261Z,1608.00
2023-04-27T04:55:20.264Z,1672.00
2023-04-27T04:56:20.258Z,1732.00
2023-04-27T04:57:20.259Z,1792.00
2023-04-27T04:58:20.268Z,1836.00
2023-04-27T04:59:20.268Z,1852.00
2023-04-27T05:00:20.248Z,1888.00
2023-04-27T05:01:20.299Z,1960.00
2023-04-27T05:02:20.316Z,2016.00
2023-04-27T05:03:20.394Z,2052.00
2023-04-27T05:04:20.652Z,2088.00
2023-04-27T05:05:20.244Z,2160.00
2023-04-27T05:06:20.271Z,2224.00
2023-04-27T05:08:20.241Z,2408.00
2023-04-27T05:09:20.253Z,2420.00
2023-04-27T05:10:20.231Z,2404.00
2023-04-27T05:11:20.233Z,2372.00
2023-04-27T05:12:20.243Z,2332.00
2023-04-27T05:13:20.241Z,2312.00
2023-04-27T05:14:20.227Z,2320.00
2023-04-27T05:15:20.229Z,2324.00
2023-04-27T05:16:20.267Z,2336.00
2023-04-27T05:17:20.257Z,2392.00
2023-04-27T05:18:20.245Z,2456.00
2023-04-27T05:19:20.211Z,2496.00
2023-04-27T05:20:20.780Z,2516.00
2023-04-27T05:21:20.206Z,2608.00
2023-04-27T05:22:20.235Z,2796.00
2023-04-27T05:23:20.199Z,2936.00
2023-04-27T05:24:20.206Z,2952.00
2023-04-27T05:25:20.205Z,2960.00
2023-04-27T05:26:20.201Z,3008.00
2023-04-27T05:27:20.199Z,3064.00
2023-04-27T05:28:20.191Z,3088.00
2023-04-27T05:29:20.187Z,3180.00
2023-04-27T05:30:20.202Z,3244.00
2023-04-27T05:31:20.265Z,3268.00
2023-04-27T05:32:20.186Z,3316.00
2023-04-27T05:33:20.188Z,3364.00
2023-04-27T05:34:20.191Z,3432.00
2023-04-27T05:35:20.178Z,3500.00
2023-04-27T05:36:20.178Z,3560.00
2023-04-27T05:37:20.170Z,3644.00
2023-04-27T05:38:20.205Z,3752.00
2023-04-27T05:39:20.175Z,3812.00
2023-04-27T05:40:20.169Z,3836.00
2023-04-27T05:41:20.170Z,3832.00
2023-04-27T05:42:20.181Z,3828.00
2023-04-27T05:43:20.168Z,3844.00
2023-04-27T05:44:20.170Z,3904.00
2023-04-27T05:45:20.225Z,3960.00
2023-04-27T05:46:20.255Z,4084.00
2023-04-27T05:47:20.163Z,4124.00
2023-04-27T05:48:20.158Z,4136.00
2023-04-27T05:49:20.154Z,4112.00
2023-04-27T05:50:20.159Z,4112.00
2023-04-27T05:51:20.150Z,4176.00
2023-04-27T05:52:20.153Z,4240.00
2023-04-27T05:53:20.150Z,4328.00
2023-04-27T05:54:20.167Z,4528.00
2023-04-27T05:55:20.145Z,4608.00
2023-04-27T05:56:20.146Z,4672.00
2023-04-27T05:57:20.146Z,4792.00
2023-04-27T05:58:20.148Z,4828.00
2023-04-27T05:59:20.150Z,4864.00
2023-04-27T06:00:20.171Z,4880.00
2023-04-27T06:01:20.134Z,4876.00
2023-04-27T06:02:20.242Z,4908.00
2023-04-27T06:03:20.289Z,5000.00
2023-04-27T06:04:20.280Z,5184.00
2023-04-27T06:05:20.159Z,5380.00
2023-04-27T06:06:20.128Z,5504.00
2023-04-27T06:07:20.124Z,5616.00
2023-04-27T06:08:20.135Z,5616.00
2023-04-27T06:09:20.125Z,5512.00
2023-04-27T06:10:20.143Z,5420.00
2023-04-27T06:11:20.121Z,5468.00
2023-04-27T06:12:20.137Z,5540.00
2023-04-27T06:13:20.125Z,5688.00
2023-04-27T06:14:20.131Z,5904.00
2023-04-27T06:15:20.112Z,6096.00
2023-04-27T06:16:20.118Z,6136.00
2023-04-27T06:17:20.124Z,6124.00
2023-04-27T06:18:20.138Z,6064.00
2023-04-27T06:19:20.109Z,5964.00
2023-04-27T06:20:20.116Z,5816.00
2023-04-27T06:21:20.105Z,5552.00
2023-04-27T06:22:20.114Z,5376.00
2023-04-27T06:23:20.108Z,5108.00
2023-04-27T06:24:20.108Z,4700.00
2023-04-27T06:25:20.119Z,4352.00
2023-04-27T06:26:20.123Z,4020.00
2023-04-27T06:27:20.101Z,3988.00
2023-04-27T06:28:20.103Z,4400.00
2023-04-27T06:29:20.105Z,4932.00
2023-04-27T06:30:20.097Z,5128.00
2023-04-27T06:31:20.148Z,4616.00
2023-04-27T06:32:20.096Z,4224.00
2023-04-27T06:33:20.101Z,4336.00
2023-04-27T06:34:20.094Z,4956.00
2023-04-27T06:35:20.084Z,5412.00
2023-04-27T06:36:20.090Z,5896.00
2023-04-27T06:37:20.083Z,6368.00
2023-04-27T06:38:20.089Z,6388.00
2023-04-27T06:39:20.085Z,7184.00
2023-04-27T06:40:20.086Z,7992.00
2023-04-27T06:41:20.080Z,8412.00
2023-04-27T06:42:20.105Z,8740.00
2023-04-27T06:43:20.073Z,8636.00
2023-04-27T06:44:20.079Z,8300.00
2023-04-27T06:45:20.072Z,7868.00
2023-04-27T06:46:20.094Z,7248.00
2023-04-27T06:47:20.066Z,6864.00
2023-04-27T06:48:20.239Z,6596.00
2023-04-27T06:49:20.069Z,6300.00
2023-04-27T06:50:20.071Z,6800.00
2023-04-27T06:51:20.068Z,7156.00
2023-04-27T06:52:20.078Z,6772.00
2023-04-27T06:53:20.068Z,6384.00
2023-04-27T06:54:20.073Z,5912.00
2023-04-27T06:55:20.067Z,5832.00
2023-04-27T06:56:20.070Z,6100.00
2023-04-27T06:57:20.061Z,6000.00
2023-04-27T06:58:20.085Z,6264.00
2023-04-27T06:59:20.061Z,6784.00
2023-04-27T07:00:20.078Z,7128.00
2023-04-27T07:01:20.077Z,7500.00
2023-04-27T07:02:20.344Z,7284.00
2023-04-27T07:03:20.141Z,6628.00
2023-04-27T07:04:20.115Z,6836.00
2023-04-27T07:05:20.055Z,7416.00
2023-04-27T07:06:20.080Z,8992.00
2023-04-27T07:07:20.055Z,9832.00
2023-04-27T07:08:20.054Z,10748.00
2023-04-27T07:09:27.402Z,11320.00
2023-04-27T07:10:20.048Z,10884.00
2023-04-27T07:11:20.058Z,10200.00
2023-04-27T07:12:20.069Z,8700.00
2023-04-27T07:13:20.047Z,8084.00
2023-04-27T07:14:20.072Z,8604.00
2023-04-27T07:15:20.048Z,8436.00
2023-04-27T07:16:20.104Z,10152.00
2023-04-27T07:17:20.182Z,15364.00
2023-04-27T07:18:20.056Z,12292.00
2023-04-27T07:19:20.051Z,21024.00
2023-04-27T07:20:20.318Z,24576.00
2023-04-27T07:21:20.043Z,13468.00
2023-04-27T07:22:20.045Z,11460.00
2023-04-27T07:23:20.046Z,13752.00
2023-04-27T07:24:20.040Z,22624.00
2023-04-27T07:25:20.057Z,17888.00
2023-04-27T07:26:20.042Z,15144.00
2023-04-27T07:27:20.037Z,23616.00
2023-04-27T07:28:20.041Z,29280.00
2023-04-27T07:29:27.225Z,22720.00
2023-04-27T07:30:20.066Z,24480.00
2023-04-27T07:31:20.106Z,20896.00
2023-04-27T07:32:20.117Z,16624.00
2023-04-27T07:33:20.032Z,14784.00
2023-04-27T07:34:20.038Z,29408.00
2023-04-27T07:35:20.040Z,34464.00
2023-04-27T07:36:20.037Z,16836.00
2023-04-27T07:37:20.140Z,13876.00
2023-04-27T07:38:20.045Z,22432.00
2023-04-27T07:39:20.026Z,17376.00
2023-04-27T07:40:20.040Z,65056.00
2023-04-27T07:41:20.032Z,34400.00
2023-04-27T07:42:20.029Z,22560.00
2023-04-27T07:43:20.028Z,63520.00
2023-04-27T07:44:20.042Z,15636.00
2023-04-27T07:45:20.026Z,12136.00
2023-04-27T07:46:20.067Z,15392.00
2023-04-27T07:47:20.032Z,11476.00
2023-04-27T07:48:20.116Z,46144.00
2023-04-27T07:49:20.048Z,10840.00
2023-04-27T07:50:20.034Z,30880.00
2023-04-27T07:51:20.026Z,32992.00
2023-04-27T07:52:20.033Z,58816.00
2023-04-27T07:53:20.027Z,74432.00
2023-04-27T07:54:20.034Z,70336.00
2023-04-27T07:55:20.029Z,57280.00
2023-04-27T07:56:20.043Z,66912.00
2023-04-27T07:57:20.027Z,10812.00
2023-04-27T07:58:20.048Z,11760.00
2023-04-27T07:59:20.029Z,10508.00
2023-04-27T08:00:20.034Z,9532.00
2023-04-27T08:01:21.478Z,10988.00
2023-04-27T08:02:20.582Z,13212.00
2023-04-27T08:03:20.152Z,13860.00
2023-04-27T08:04:20.596Z,13040.00
2023-04-27T08:05:20.417Z,13164.00
2023-04-27T08:06:20.138Z,16496.00
2023-04-27T08:07:20.171Z,20544.00
2023-04-27T08:08:20.092Z,12552.00
2023-04-27T08:09:20.036Z,12848.00
2023-04-27T08:10:20.040Z,15772.00
2023-04-27T08:11:20.040Z,11716.00
2023-04-27T08:12:20.049Z,9924.00
2023-04-27T08:13:20.038Z,9296.00
2023-04-27T08:14:20.045Z,8712.00
2023-04-27T08:15:20.045Z,8684.00
2023-04-27T08:16:20.057Z,8384.00
2023-04-27T08:17:20.041Z,7912.00
2023-04-27T08:18:20.067Z,9980.00
2023-04-27T08:19:20.054Z,8572.00
2023-04-27T08:20:20.061Z,10292.00
2023-04-27T08:21:20.050Z,11052.00
2023-04-27T08:22:20.105Z,10256.00
2023-04-27T08:23:20.048Z,8960.00
2023-04-27T08:24:20.060Z,7444.00
2023-04-27T08:25:20.051Z,5076.00
2023-04-27T08:26:20.050Z,4192.00
2023-04-27T08:27:20.050Z,3644.00
2023-04-27T08:28:20.053Z,3592.00
2023-04-27T08:29:27.645Z,4216.00
2023-04-27T08:30:20.060Z,4828.00
2023-04-27T08:31:20.086Z,5340.00
2023-04-27T08:32:20.058Z,4604.00
2023-04-27T08:33:20.057Z,4092.00
2023-04-27T08:34:20.197Z,3664.00
2023-04-27T08:35:20.057Z,3992.00
2023-04-27T08:36:20.050Z,4388.00
2023-04-27T08:37:20.050Z,5196.00
2023-04-27T08:38:20.055Z,5280.00
2023-04-27T08:39:20.074Z,5840.00
2023-04-27T08:40:20.057Z,6848.00
2023-04-27T08:41:21.927Z,8116.00
2023-04-27T08:42:20.076Z,9376.00
2023-04-27T08:43:20.058Z,11388.00
2023-04-27T08:44:20.056Z,12784.00
2023-04-27T08:45:20.064Z,12452.00
2023-04-27T08:46:20.084Z,11248.00
2023-04-27T08:47:25.788Z,9044.00
2023-04-27T08:48:20.083Z,7200.00
2023-04-27T08:49:20.392Z,6088.00
2023-04-27T08:50:20.072Z,4828.00
2023-04-27T08:51:20.074Z,4208.00
2023-04-27T08:52:20.064Z,4192.00
2023-04-27T08:53:20.053Z,5188.00
2023-04-27T08:54:20.082Z,7824.00
2023-04-27T08:55:20.060Z,10420.00
2023-04-27T08:56:20.065Z,11720.00
2023-04-27T08:57:20.055Z,11620.00
2023-04-27T08:58:20.065Z,9732.00
2023-04-27T08:59:20.057Z,8152.00
2023-04-27T09:00:20.058Z,7428.00
2023-04-27T09:01:20.088Z,6984.00
2023-04-27T09:02:20.118Z,6752.00
2023-04-27T09:03:20.176Z,7148.00
2023-04-27T09:04:20.325Z,7828.00
2023-04-27T09:05:20.111Z,8792.00
2023-04-27T09:06:20.118Z,9780.00
2023-04-27T09:07:20.089Z,11000.00
2023-04-27T09:08:20.071Z,12384.00
2023-04-27T09:09:20.053Z,13468.00
2023-04-27T09:10:20.060Z,23200.00
2023-04-27T09:11:20.054Z,29568.00
2023-04-27T09:12:20.064Z,100896.00
2023-04-27T09:13:20.052Z,91520.00
2023-04-27T09:14:20.072Z,44256.00
2023-04-27T09:15:20.069Z,33024.00
2023-04-27T09:16:20.144Z,16692.00
2023-04-27T09:17:20.087Z,12296.00
2023-04-27T09:18:20.082Z,12408.00
2023-04-27T09:19:20.057Z,12340.00
2023-04-27T09:20:20.099Z,11920.00
2023-04-27T09:21:20.059Z,12344.00
2023-04-27T09:22:20.099Z,12496.00
2023-04-27T09:23:20.060Z,12824.00
2023-04-27T09:24:20.081Z,13364.00
2023-04-27T09:25:20.063Z,13604.00
2023-04-27T09:26:20.060Z,14100.00
2023-04-27T09:27:20.085Z,13292.00
2023-04-27T09:28:20.098Z,14968.00
2023-04-27T09:29:20.069Z,11592.00
2023-04-27T09:30:20.167Z,9632.00
2023-04-27T09:31:20.073Z,9800.00
2023-04-27T09:32:20.061Z,10324.00
2023-04-27T09:33:20.060Z,11060.00
2023-04-27T09:34:20.060Z,12120.00
2023-04-27T09:35:20.066Z,13260.00
2023-04-27T09:36:20.063Z,14612.00
2023-04-27T09:37:20.063Z,15132.00
2023-04-27T09:38:20.221Z,15548.00
2023-04-27T09:39:20.067Z,16052.00
2023-04-27T09:40:20.114Z,16632.00
2023-04-27T09:41:20.086Z,17664.00
2023-04-27T09:42:20.065Z,19520.00
2023-04-27T09:43:20.070Z,82048.00
2023-04-27T09:44:20.070Z,93568.00
2023-04-27T09:45:20.072Z,98848.00
2023-04-27T09:46:20.090Z,92416.00
2023-04-27T09:47:20.108Z,91008.00
2023-04-27T09:48:20.067Z,104480.00
2023-04-27T09:49:20.079Z,100288.00
2023-04-27T09:50:20.136Z,91296.00
2023-04-27T09:51:20.083Z,11204.00
2023-04-27T09:52:20.072Z,9868.00
2023-04-27T09:53:20.082Z,8972.00
2023-04-27T09:54:20.107Z,8112.00
2023-04-27T09:55:20.086Z,6932.00
2023-04-27T09:56:20.094Z,5796.00
2023-04-27T09:57:20.098Z,4728.00
2023-04-27T09:58:20.085Z,4088.00
2023-04-27T09:59:20.095Z,3716.00
2023-04-27T10:00:20.094Z,3576.00
2023-04-27T10:01:20.127Z,3484.00
2023-04-27T10:02:25.457Z,3416.00
2023-04-27T10:03:20.214Z,3464.00
2023-04-27T10:04:20.306Z,3532.00
2023-04-27T10:05:20.194Z,3588.00
2023-04-27T10:06:20.108Z,3736.00
2023-04-27T10:07:20.110Z,4096.00
2023-04-27T10:08:20.108Z,4732.00
2023-04-27T10:09:20.123Z,5704.00
2023-04-27T10:10:20.246Z,6968.00
2023-04-27T10:11:20.115Z,8556.00
2023-04-27T10:12:20.149Z,10396.00
2023-04-27T10:13:20.151Z,11972.00
2023-04-27T10:14:20.130Z,14188.00
2023-04-27T10:15:20.135Z,16628.00
2023-04-27T10:16:20.156Z,34016.00
2023-04-27T10:17:20.159Z,110496.00
2023-04-27T10:18:20.125Z,80704.00
2023-04-27T10:19:20.129Z,63616.00
2023-04-27T10:20:20.126Z,52224.00
2023-04-27T10:21:20.135Z,29664.00
2023-04-27T10:22:20.126Z,36128.00
2023-04-27T10:23:20.133Z,23232.00
2023-04-27T10:24:20.152Z,22720.00
2023-04-27T10:25:20.188Z,24864.00
2023-04-27T10:26:20.257Z,24896.00
2023-04-27T10:27:20.149Z,23872.00
2023-04-27T10:28:20.145Z,23488.00
2023-04-27T10:29:20.151Z,30112.00
2023-04-27T10:30:20.153Z,21856.00
2023-04-27T10:31:20.207Z,24672.00
2023-04-27T10:32:20.175Z,114112.00
2023-04-27T10:33:20.175Z,112000.00
2023-04-27T10:34:21.566Z,112288.00
2023-04-27T10:35:20.171Z,92352.00
2023-04-27T10:36:20.166Z,102848.00
2023-04-27T10:37:20.177Z,111680.00
2023-04-27T10:38:20.188Z,105888.00
2023-04-27T10:39:20.186Z,97664.00
2023-04-27T10:40:20.185Z,109184.00
2023-04-27T10:41:20.204Z,34048.00
2023-04-27T10:42:20.235Z,9216.00
2023-04-27T10:43:20.209Z,8452.00
2023-04-27T10:44:20.208Z,8008.00
2023-04-27T10:45:20.222Z,7264.00
2023-04-27T10:46:20.239Z,6524.00
2023-04-27T10:47:20.249Z,6040.00
2023-04-27T10:48:20.237Z,5468.00
2023-04-27T10:49:20.251Z,4792.00
2023-04-27T10:50:20.256Z,4356.00
2023-04-27T10:51:20.268Z,4168.00
2023-04-27T10:52:20.271Z,4228.00
2023-04-27T10:53:20.277Z,4980.00
2023-04-27T10:54:20.278Z,6352.00
2023-04-27T10:55:20.343Z,9008.00
2023-04-27T10:56:20.287Z,92832.00
2023-04-27T10:57:20.295Z,16516.00
2023-04-27T10:58:20.328Z,14468.00
2023-04-27T10:59:20.307Z,12088.00
2023-04-27T11:00:20.312Z,13996.00
2023-04-27T11:01:20.337Z,34880.00
2023-04-27T11:02:20.334Z,22816.00
2023-04-27T11:03:20.428Z,17696.00
2023-04-27T11:04:20.363Z,46080.00
2023-04-27T11:05:20.334Z,26816.00
2023-04-27T11:06:20.338Z,107296.00
2023-04-27T11:07:20.350Z,100672.00
2023-04-27T11:08:20.352Z,112544.00
2023-04-27T11:09:20.395Z,129600.00
2023-04-27T11:10:20.414Z,130880.00
2023-04-27T11:11:20.370Z,118720.00
2023-04-27T11:12:20.378Z,112672.00
2023-04-27T11:13:20.418Z,18272.00
2023-04-27T11:14:20.416Z,13268.00
2023-04-27T11:15:20.408Z,12808.00
2023-04-27T11:16:20.426Z,12516.00
2023-04-27T11:17:20.437Z,14540.00
2023-04-27T11:18:20.453Z,64960.00
2023-04-27T11:19:20.427Z,30784.00
2023-04-27T11:20:20.438Z,74304.00
2023-04-27T11:21:20.459Z,95200.00
2023-04-27T11:22:20.464Z,69792.00
2023-04-27T11:23:20.462Z,75904.00
2023-04-27T11:24:20.473Z,85472.00
2023-04-27T11:25:20.483Z,91872.00
2023-04-27T11:26:20.496Z,94464.00
2023-04-27T11:27:20.504Z,101376.00
2023-04-27T11:28:20.507Z,84384.00
2023-04-27T11:29:20.534Z,31904.00
2023-04-27T11:30:20.555Z,64096.00
2023-04-27T11:31:20.558Z,100160.00
2023-04-27T11:32:20.558Z,109856.00
2023-04-27T11:33:20.578Z,94176.00
2023-04-27T11:34:20.575Z,18752.00
2023-04-27T11:35:20.589Z,11708.00
2023-04-27T11:36:20.600Z,10000.00
2023-04-27T11:37:20.614Z,8940.00
2023-04-27T11:38:20.691Z,7824.00
2023-04-27T11:39:20.711Z,6700.00
2023-04-27T11:40:22.002Z,6088.00
2023-04-27T11:41:20.657Z,5748.00
2023-04-27T11:42:20.684Z,5564.00
2023-04-27T11:43:20.689Z,5436.00
2023-04-27T11:44:20.684Z,5248.00
2023-04-27T11:45:20.698Z,5048.00
2023-04-27T11:46:20.759Z,4892.00
2023-04-27T11:47:20.708Z,5176.00
2023-04-27T11:48:20.723Z,6088.00
2023-04-27T11:49:20.760Z,6944.00
2023-04-27T11:50:20.745Z,7496.00
2023-04-27T11:51:20.758Z,7700.00
2023-04-27T11:52:20.757Z,7276.00
2023-04-27T11:53:20.772Z,6672.00
2023-04-27T11:54:20.776Z,6192.00
2023-04-27T11:55:20.779Z,5972.00
2023-04-27T11:56:20.785Z,5872.00
2023-04-27T11:57:20.792Z,5756.00
2023-04-27T11:58:20.798Z,5628.00
2023-04-27T11:59:20.804Z,5432.00
2023-04-27T12:00:20.818Z,5268.00
2023-04-27T12:01:27.780Z,5332.00
2023-04-27T12:02:20.913Z,5524.00
2023-04-27T12:03:21.101Z,5760.00
2023-04-27T12:04:21.259Z,6060.00
2023-04-27T12:05:21.002Z,6408.00
2023-04-27T12:06:32.253Z,6820.00
2023-04-27T12:07:20.849Z,7220.00
2023-04-27T12:08:20.853Z,8016.00
2023-04-27T12:09:20.853Z,8904.00
2023-04-27T12:10:20.855Z,10056.00
2023-04-27T12:11:20.869Z,11440.00
2023-04-27T12:12:20.864Z,12576.00
2023-04-27T12:13:20.876Z,12992.00
2023-04-27T12:14:20.874Z,12960.00
2023-04-27T12:15:20.875Z,12496.00
2023-04-27T12:16:20.918Z,11472.00
2023-04-27T12:17:20.986Z,10384.00
2023-04-27T12:18:20.898Z,9120.00
2023-04-27T12:19:20.886Z,7988.00
2023-04-27T12:20:20.888Z,6952.00
2023-04-27T12:21:20.893Z,6172.00